Hinsdale, Illinois
Current Conditions -  °F | °C
As of 4:53 AM on Wednesday 26 Nov 2014 (Local Time) from KMDW Reporting Station
Few Clouds Few Clouds  
Wind Chill: 16°   Ceiling: Unl
Heat Index: 22°   Visibility: 8mi
Dew Point: 17°   Wind: 5mph
Humidity: 82%   Direction: 130°SE
Pressure: 30.15"   Gusts: NA
Location:  41.8°N, 87.93°W
Report Text: KMDW 261053Z 13004KT 8SM FEW012 M06/M08 A3015 RMK AO2 SLP226 T10561083
Loading
Personal Weather Stations






























Interactive Weather Map New forecast layout! Learn more

10-Day Weather Forecast

Advertisements
Track Severe Weather on mobile